sim
Sign-in with your pilot id or email,
or register
Callsign
Passwort

Schedule Details

Flight Number: DLH2145
Departure: Stuttgart Airport (EDDS) at 08:30
Arrival: Munich Airport (EDDM) at 09:15
Route: Lufthansa Passenger Schedule. Enter filed route here before submitting Pirep.

Weather Information
Getting current METAR information for EDDS 221820Z VRB01KT 9999 FEW060CB 19/12 Q1009 NOSIG
Getting current METAR information for EDDM 221820Z VRB01KT 9999 FEW050TCU 18/15 Q1010 NOSIG

Schedule Frequency

Route Map